Terminal Aerodrome Forecast
Issued by NWS Grand Rapids, MI

Home | Current Version | Previous Version | Text Only | Print | Product List | Glossary On
Versions: 1 2 3 4 5 6 7 8 9 10 11 12 13 14 15 16 17 18 19 20
000
FTUS43 KGRR 250000 RRA
TAFGRR
TAF
KGRR 250004Z 2500/2524 28007KT P6SM OVC025
      TEMPO 2500/2504 4SM -RASN OVC015
     FM250400 30007KT 6SM BR OVC030
     FM250700 03007KT 3SM BR OVC015
     FM251300 06012KT P6SM OVC025=

USA.gov is the U.S. government's official web portal to all federal, state and local government web resources and services.